createdAt,value
2018-03-15T00:00:36.683Z,82.97
2018-03-15T00:01:36.699Z,82.97
2018-03-15T00:02:36.459Z,83.07
2018-03-15T00:03:36.730Z,82.97
2018-03-15T00:04:36.801Z,83.16
2018-03-15T00:05:36.755Z,82.97
2018-03-15T00:06:36.517Z,82.88
2018-03-15T00:07:36.790Z,83.36
2018-03-15T00:08:36.818Z,83.16
2018-03-15T00:09:36.561Z,83.73
2018-03-15T00:10:36.830Z,83.64
2018-03-15T00:11:36.845Z,83.73
2018-03-15T00:12:36.860Z,83.36
2018-03-15T00:13:36.876Z,83.64
2018-03-15T00:14:36.898Z,83.36
2018-03-15T00:15:36.654Z,83.26
2018-03-15T00:16:36.922Z,83.45
2018-03-15T00:17:36.938Z,83.54
2018-03-15T00:18:36.956Z,83.45
2018-03-15T00:19:36.769Z,83.54
2018-03-15T00:20:36.980Z,83.64
2018-03-15T00:21:36.742Z,83.64
2018-03-15T00:22:37.011Z,83.92
2018-03-15T00:23:37.025Z,84.11
2018-03-15T00:24:36.787Z,83.73
2018-03-15T00:25:37.057Z,83.45
2018-03-15T00:26:37.070Z,83.54
2018-03-15T00:27:37.082Z,83.73
2018-03-15T00:28:37.101Z,83.83
2018-03-15T00:29:37.112Z,83.73
2018-03-15T00:30:37.131Z,83.45
2018-03-15T00:31:36.889Z,83.64
2018-03-15T00:32:36.905Z,83.16
2018-03-15T00:33:37.174Z,83.73
2018-03-15T00:34:37.200Z,83.83
2018-03-15T00:35:37.003Z,83.64
2018-03-15T00:36:37.217Z,83.36
2018-03-15T00:37:37.237Z,83.54
2018-03-15T00:38:36.994Z,83.64
2018-03-15T00:39:37.030Z,83.64
2018-03-15T00:40:37.015Z,83.54
2018-03-15T00:41:37.287Z,83.64
2018-03-15T00:42:37.294Z,83.73
2018-03-15T00:43:37.327Z,83.54
2018-03-15T00:44:37.330Z,83.92
2018-03-15T00:45:37.352Z,83.36
2018-03-15T00:46:37.365Z,83.64
2018-03-15T00:47:37.387Z,83.73
2018-03-15T00:48:37.396Z,83.31
2018-03-15T00:49:37.156Z,83.83
2018-03-15T00:50:37.473Z,83.97
2018-03-15T00:51:37.189Z,83.92
2018-03-15T00:52:37.453Z,83.97
2018-03-15T00:53:37.266Z,84.07
2018-03-15T00:54:37.483Z,83.69
2018-03-15T00:55:37.503Z,83.4
2018-03-15T00:56:37.522Z,83.88
2018-03-15T00:57:37.528Z,84.07
2018-03-15T00:58:37.543Z,84.17
2018-03-15T00:59:37.590Z,84.26
2018-03-15T01:00:37.319Z,83.88
2018-03-15T01:01:37.333Z,83.78
2018-03-15T01:02:37.607Z,83.97
2018-03-15T01:03:37.617Z,84.07
2018-03-15T01:04:37.649Z,84.07
2018-03-15T01:05:37.443Z,84.45
2018-03-15T01:06:37.666Z,84.64
2018-03-15T01:07:37.675Z,84.26
2018-03-15T01:08:37.437Z,84.36
2018-03-15T01:09:37.706Z,84.74
2018-03-15T01:10:37.722Z,84.36
2018-03-15T01:11:37.481Z,84.55
2018-03-15T01:12:37.750Z,84.26
2018-03-15T01:13:37.524Z,84.83
2018-03-15T01:14:37.779Z,84.55
2018-03-15T01:15:37.795Z,84.45
2018-03-15T01:16:37.810Z,84.74
2018-03-15T01:17:37.824Z,84.17
2018-03-15T01:18:37.837Z,84.36
2018-03-15T01:19:37.599Z,84.36
2018-03-15T01:20:37.878Z,84.36
2018-03-15T01:21:37.882Z,84.55
2018-03-15T01:22:37.633Z,84.74
2018-03-15T01:23:37.947Z,84.17
2018-03-15T01:24:37.662Z,84.64
2018-03-15T01:25:37.923Z,84.26
2018-03-15T01:26:37.943Z,84.36
2018-03-15T01:27:37.708Z,84.55
2018-03-15T01:28:37.984Z,84.26
2018-03-15T01:29:38.000Z,84.45
2018-03-15T01:30:38.013Z,84.36
2018-03-15T01:31:37.775Z,84.45
2018-03-15T01:32:38.039Z,84.17
2018-03-15T01:33:37.806Z,84.17
2018-03-15T01:34:37.825Z,84.74
2018-03-15T01:35:38.086Z,84.83
2018-03-15T01:36:38.098Z,84.36
2018-03-15T01:37:38.111Z,84.64
2018-03-15T01:38:37.872Z,84.64
2018-03-15T01:39:38.139Z,84.36
2018-03-15T01:40:38.201Z,84.55
2018-03-15T01:41:38.167Z,84.26
2018-03-15T01:42:37.938Z,84.55
2018-03-15T01:43:38.193Z,84.83
2018-03-15T01:44:38.216Z,84.64
2018-03-15T01:45:37.973Z,84.64
2018-03-15T01:46:38.249Z,84.74
2018-03-15T01:47:38.259Z,84.64
2018-03-15T01:48:38.277Z,84.83
2018-03-15T01:49:38.288Z,84.74
2018-03-15T01:50:38.305Z,84.74
2018-03-15T01:51:38.317Z,84.64
2018-03-15T01:52:38.077Z,85.07
2018-03-15T01:53:38.348Z,85.11
2018-03-15T01:54:38.408Z,85.21
2018-03-15T01:55:38.122Z,85.21
2018-03-15T01:56:38.392Z,85.21
2018-03-15T01:57:38.454Z,84.83
2018-03-15T01:58:38.418Z,84.74
2018-03-15T01:59:38.433Z,85.3
2018-03-15T02:00:38.448Z,84.55
2018-03-15T02:01:38.470Z,85.3
2018-03-15T02:02:38.481Z,85.21
2018-03-15T02:03:38.495Z,84.55
2018-03-15T02:04:38.509Z,85.21
2018-03-15T02:05:38.510Z,85.21
2018-03-15T02:06:38.524Z,84.74
2018-03-15T02:07:38.551Z,84.36
2018-03-15T02:08:38.566Z,84.55
2018-03-15T02:09:38.580Z,85.3
2018-03-15T02:10:38.592Z,85.3
2018-03-15T02:11:38.714Z,85.49
2018-03-15T02:12:38.625Z,85.21
2018-03-15T02:13:38.636Z,84.83
2018-03-15T02:14:38.647Z,85.02
2018-03-15T02:15:38.665Z,84.74
2018-03-15T02:16:38.728Z,84.74
2018-03-15T02:17:38.693Z,84.55
2018-03-15T02:18:38.709Z,85.3
2018-03-15T02:19:38.726Z,84.64
2018-03-15T02:20:38.739Z,84.74
2018-03-15T02:21:38.750Z,84.83
2018-03-15T02:22:38.766Z,84.74
2018-03-15T02:23:38.782Z,84.74
2018-03-15T02:24:38.541Z,84.92
2018-03-15T02:25:38.815Z,84.74
2018-03-15T02:26:38.828Z,84.74
2018-03-15T02:27:38.839Z,84.36
2018-03-15T02:28:38.601Z,84.45
2018-03-15T02:29:38.870Z,84.74
2018-03-15T02:30:38.629Z,84.74
2018-03-15T02:31:38.898Z,84.64
2018-03-15T02:32:38.913Z,84.83
2018-03-15T02:33:38.978Z,84.45
2018-03-15T02:34:38.945Z,84.36
2018-03-15T02:35:38.959Z,84.36
2018-03-15T02:36:38.977Z,84.36
2018-03-15T02:37:38.995Z,84.55
2018-03-15T02:38:38.746Z,84.55
2018-03-15T02:39:39.016Z,84.07
2018-03-15T02:40:38.775Z,84.07
2018-03-15T02:41:39.043Z,84.26
2018-03-15T02:42:39.079Z,84.07
2018-03-15T02:43:39.072Z,84.07
2018-03-15T02:44:39.094Z,84.07
2018-03-15T02:45:39.106Z,84.26
2018-03-15T02:46:39.117Z,84.17
2018-03-15T02:47:39.128Z,84.36
2018-03-15T02:48:39.199Z,84.26
2018-03-15T02:49:39.154Z,84.36
2018-03-15T02:50:38.916Z,84.74
2018-03-15T02:51:38.931Z,84.17
2018-03-15T02:52:39.211Z,84.07
2018-03-15T02:53:39.215Z,84.26
2018-03-15T02:54:38.977Z,83.97
2018-03-15T02:55:38.987Z,83.88
2018-03-15T02:56:39.259Z,84.26
2018-03-15T02:57:39.276Z,84.36
2018-03-15T02:58:39.032Z,84.26
2018-03-15T02:59:39.046Z,83.69
2018-03-15T03:00:39.326Z,84.07
2018-03-15T03:01:39.333Z,84.45
2018-03-15T03:02:39.344Z,84.17
2018-03-15T03:03:39.359Z,84.55
2018-03-15T03:04:39.428Z,84.17
2018-03-15T03:05:39.389Z,84.55
2018-03-15T03:06:39.409Z,84.26
2018-03-15T03:07:39.418Z,84.64
2018-03-15T03:08:39.438Z,84.74
2018-03-15T03:09:39.446Z,83.97
2018-03-15T03:10:39.207Z,83.5
2018-03-15T03:11:39.218Z,84.07
2018-03-15T03:12:39.490Z,83.88
2018-03-15T03:13:39.510Z,84.55
2018-03-15T03:14:39.268Z,84.36
2018-03-15T03:15:39.335Z,84.74
2018-03-15T03:16:39.293Z,84.64
2018-03-15T03:17:39.359Z,85.21
2018-03-15T03:18:39.574Z,84.69
2018-03-15T03:19:39.337Z,85.36
2018-03-15T03:20:39.608Z,85.4
2018-03-15T03:21:39.620Z,85.21
2018-03-15T03:22:39.634Z,85.02
2018-03-15T03:23:39.405Z,85.3
2018-03-15T03:24:39.662Z,85.11
2018-03-15T03:25:39.685Z,85.3
2018-03-15T03:26:39.441Z,85.4
2018-03-15T03:27:39.707Z,84.55
2018-03-15T03:28:39.469Z,84.92
2018-03-15T03:29:39.736Z,84.83
2018-03-15T03:30:39.775Z,84.45
2018-03-15T03:31:39.775Z,84.74
2018-03-15T03:32:39.778Z,84.55
2018-03-15T03:33:39.797Z,84.74
2018-03-15T03:34:39.962Z,84.74
2018-03-15T03:35:39.828Z,84.45
2018-03-15T03:36:39.838Z,84.55
2018-03-15T03:37:39.851Z,84.74
2018-03-15T03:38:39.867Z,84.36
2018-03-15T03:39:39.884Z,84.36
2018-03-15T03:40:39.913Z,84.74
2018-03-15T03:41:39.909Z,84.45
2018-03-15T03:42:39.929Z,84.55
2018-03-15T03:43:39.940Z,84.17
2018-03-15T03:44:39.953Z,84.17
2018-03-15T03:45:39.967Z,83.78
2018-03-15T03:46:39.981Z,83.4
2018-03-15T03:47:40.001Z,83.97
2018-03-15T03:48:40.011Z,83.88
2018-03-15T03:49:40.085Z,84.26
2018-03-15T03:50:40.043Z,83.88
2018-03-15T03:51:40.055Z,83.88
2018-03-15T03:52:40.070Z,83.97
2018-03-15T03:53:39.830Z,83.69
2018-03-15T03:54:40.100Z,83.97
2018-03-15T03:55:40.115Z,83.78
2018-03-15T03:56:40.128Z,83.88
2018-03-15T03:57:40.143Z,83.31
2018-03-15T03:58:40.156Z,83.78
2018-03-15T03:59:40.173Z,83.31
2018-03-15T04:00:40.188Z,83.4
2018-03-15T04:01:40.202Z,83.69
2018-03-15T04:02:40.215Z,84.26
2018-03-15T04:03:40.230Z,83.97
2018-03-15T04:04:40.297Z,83.4
2018-03-15T04:05:40.265Z,83.5
2018-03-15T04:06:40.022Z,83.31
2018-03-15T04:07:40.289Z,83.88
2018-03-15T04:08:40.302Z,83.5
2018-03-15T04:09:40.328Z,83.59
2018-03-15T04:10:40.333Z,83.69
2018-03-15T04:11:40.349Z,83.88
2018-03-15T04:12:40.363Z,83.88
2018-03-15T04:13:40.380Z,84.36
2018-03-15T04:14:40.390Z,83.88
2018-03-15T04:15:40.152Z,84.26
2018-03-15T04:16:40.425Z,84.45
2018-03-15T04:17:40.179Z,84.17
2018-03-15T04:18:40.196Z,84.45
2018-03-15T04:19:40.212Z,84.74
2018-03-15T04:20:40.475Z,84.17
2018-03-15T04:21:40.514Z,84.36
2018-03-15T04:22:40.556Z,84.64
2018-03-15T04:23:40.523Z,84.55
2018-03-15T04:24:40.538Z,84.45
2018-03-15T04:25:40.296Z,84.55
2018-03-15T04:26:40.307Z,84.36
2018-03-15T04:27:40.577Z,84.74
2018-03-15T04:28:40.588Z,84.74
2018-03-15T04:29:40.611Z,84.36
2018-03-15T04:30:40.622Z,84.74
2018-03-15T04:31:40.684Z,84.36
2018-03-15T04:32:40.651Z,84.74
2018-03-15T04:33:40.411Z,84.92
2018-03-15T04:34:40.683Z,84.74
2018-03-15T04:35:40.689Z,84.45
2018-03-15T04:36:40.708Z,84.5
2018-03-15T04:37:40.509Z,84.59
2018-03-15T04:38:40.741Z,84.64
2018-03-15T04:39:40.487Z,84.5
2018-03-15T04:40:40.510Z,84.64
2018-03-15T04:41:40.524Z,84.5
2018-03-15T04:42:40.794Z,84.74
2018-03-15T04:43:40.550Z,85.36
2018-03-15T04:44:40.566Z,84.64
2018-03-15T04:45:40.581Z,84.74
2018-03-15T04:46:40.849Z,84.92
2018-03-15T04:47:40.961Z,84.74
2018-03-15T04:48:40.878Z,84.45
2018-03-15T04:49:40.892Z,84.36
2018-03-15T04:50:41.007Z,84.74
2018-03-15T04:51:40.924Z,84.55
2018-03-15T04:52:40.939Z,84.26
2018-03-15T04:53:40.949Z,84.64
2018-03-15T04:54:40.965Z,84.55
2018-03-15T04:55:40.982Z,84.74
2018-03-15T04:56:40.993Z,84.74
2018-03-15T04:57:41.010Z,84.5
2018-03-15T04:58:41.021Z,84.69
2018-03-15T04:59:41.035Z,85.36
2018-03-15T05:00:41.099Z,85.45
2018-03-15T05:01:40.811Z,85.17
2018-03-15T05:02:41.082Z,85.26
2018-03-15T05:03:41.092Z,85.17
2018-03-15T05:04:41.104Z,84.88
2018-03-15T05:05:41.037Z,85.17
2018-03-15T05:06:41.134Z,85.36
2018-03-15T05:07:40.896Z,85.17
2018-03-15T05:08:41.164Z,84.98
2018-03-15T05:09:40.925Z,85.26
2018-03-15T05:10:41.200Z,85.36
2018-03-15T05:11:40.955Z,85.83
2018-03-15T05:12:41.009Z,85.45
2018-03-15T05:13:41.236Z,85.07
2018-03-15T05:14:40.996Z,85.36
2018-03-15T05:15:41.018Z,85.17
2018-03-15T05:16:41.277Z,85.26
2018-03-15T05:17:41.293Z,85.17
2018-03-15T05:18:41.103Z,85.49
2018-03-15T05:19:41.320Z,84.5
2018-03-15T05:20:41.334Z,84.31
2018-03-15T05:21:41.367Z,84.69
2018-03-15T05:22:41.367Z,84.31
2018-03-15T05:23:41.378Z,84.69
2018-03-15T05:24:41.391Z,84.5
2018-03-15T05:25:41.404Z,84.5
2018-03-15T05:26:41.425Z,85.07
2018-03-15T05:27:41.434Z,84.98
2018-03-15T05:28:41.447Z,85.07
2018-03-15T05:29:41.209Z,84.59
2018-03-15T05:30:41.478Z,85.45
2018-03-15T05:31:41.488Z,85.17
2018-03-15T05:32:41.253Z,85.36
2018-03-15T05:33:41.572Z,84.5
2018-03-15T05:34:41.537Z,84.31
2018-03-15T05:35:41.549Z,85.36
2018-03-15T05:36:41.322Z,84.5
2018-03-15T05:37:41.576Z,84.69
2018-03-15T05:38:41.596Z,84.5
2018-03-15T05:39:41.352Z,84.88
2018-03-15T05:40:41.622Z,84.69
2018-03-15T05:41:41.639Z,84.59
2018-03-15T05:42:41.393Z,85.17
2018-03-15T05:43:41.411Z,85.45
2018-03-15T05:44:41.728Z,85.36
2018-03-15T05:45:41.689Z,84.69
2018-03-15T05:46:41.704Z,85.36
2018-03-15T05:47:41.721Z,85.07
2018-03-15T05:48:41.728Z,84.69
2018-03-15T05:49:41.739Z,84.69
2018-03-15T05:50:41.762Z,84.69
2018-03-15T05:51:41.778Z,84.69
2018-03-15T05:52:41.793Z,84.78
2018-03-15T05:53:41.549Z,84.31
2018-03-15T05:54:41.819Z,84.12
2018-03-15T05:55:41.579Z,84.64
2018-03-15T05:56:41.853Z,84.26
2018-03-15T05:57:41.860Z,84.22
2018-03-15T05:58:41.888Z,84.26
2018-03-15T05:59:41.687Z,84.31
2018-03-15T06:00:41.902Z,84.69
2018-03-15T06:01:41.920Z,84.41
2018-03-15T06:02:41.932Z,84.31
2018-03-15T06:03:41.952Z,84.41
2018-03-15T06:04:41.966Z,84.5
2018-03-15T06:05:41.996Z,84.5
2018-03-15T06:06:42.000Z,84.5
2018-03-15T06:07:41.749Z,84.41
2018-03-15T06:08:42.030Z,84.41
2018-03-15T06:09:41.784Z,84.41
2018-03-15T06:10:42.054Z,84.26
2018-03-15T06:11:42.068Z,84.31
2018-03-15T06:12:42.078Z,83.69
2018-03-15T06:13:42.090Z,83.69
2018-03-15T06:14:41.901Z,84.17
2018-03-15T06:15:42.126Z,83.97
2018-03-15T06:16:42.134Z,83.88
2018-03-15T06:17:41.895Z,83.69
2018-03-15T06:18:42.166Z,83.59
2018-03-15T06:19:42.181Z,83.31
2018-03-15T06:20:42.195Z,83.59
2018-03-15T06:21:42.207Z,83.5
2018-03-15T06:22:41.969Z,83.69
2018-03-15T06:23:41.992Z,83.78
2018-03-15T06:24:42.066Z,83.12
2018-03-15T06:25:42.013Z,83.12
2018-03-15T06:26:42.026Z,82.93
2018-03-15T06:27:42.039Z,82.84
2018-03-15T06:28:42.312Z,83.12
2018-03-15T06:29:42.081Z,83.31
2018-03-15T06:30:42.341Z,82.74
2018-03-15T06:31:42.101Z,83.22
2018-03-15T06:32:42.368Z,83.03
2018-03-15T06:33:42.392Z,83.03
2018-03-15T06:34:42.141Z,83.12
2018-03-15T06:35:42.155Z,83.4
2018-03-15T06:36:42.166Z,83.22
2018-03-15T06:37:42.433Z,82.84
2018-03-15T06:38:42.447Z,83.59
2018-03-15T06:39:42.209Z,83.78
2018-03-15T06:40:42.484Z,83.4
2018-03-15T06:41:42.241Z,82.93
2018-03-15T06:42:42.508Z,83.31
2018-03-15T06:43:42.525Z,83.59
2018-03-15T06:44:42.540Z,83.31
2018-03-15T06:45:42.557Z,83.12
2018-03-15T06:46:42.572Z,83.69
2018-03-15T06:47:42.587Z,83.4
2018-03-15T06:48:42.602Z,83.22
2018-03-15T06:49:42.618Z,83.55
2018-03-15T06:50:42.630Z,83.31
2018-03-15T06:51:42.646Z,83.03
2018-03-15T06:52:42.661Z,83.31
2018-03-15T06:53:42.423Z,83.22
2018-03-15T06:54:42.690Z,83.08
2018-03-15T06:55:42.708Z,83.59
2018-03-15T06:56:42.724Z,83.59
2018-03-15T06:57:42.734Z,83.69
2018-03-15T06:58:42.755Z,82.84
2018-03-15T06:59:42.508Z,83.12
2018-03-15T07:00:42.780Z,83.03
2018-03-15T07:01:42.796Z,82.84
2018-03-15T07:02:42.554Z,82.74
2018-03-15T07:03:42.831Z,82.46
2018-03-15T07:04:42.582Z,82.46
2018-03-15T07:05:42.855Z,82.59
2018-03-15T07:06:42.869Z,81.84
2018-03-15T07:07:42.628Z,81.84
2018-03-15T07:08:42.645Z,81.55
2018-03-15T07:09:42.917Z,81.45
2018-03-15T07:10:42.928Z,81.45
2018-03-15T07:11:42.739Z,81.36
2018-03-15T07:12:42.959Z,81.17
2018-03-15T07:13:42.973Z,81.55
2018-03-15T07:14:42.735Z,80.51
2018-03-15T07:15:43.026Z,80.88
2018-03-15T07:16:43.020Z,80.03
2018-03-15T07:17:43.034Z,80.32
2018-03-15T07:18:42.797Z,80.22
2018-03-15T07:19:42.818Z,80.03
2018-03-15T07:20:43.079Z,79.79
2018-03-15T07:21:43.100Z,79.55
2018-03-15T07:22:43.209Z,79.79
2018-03-15T07:23:43.131Z,79.6
2018-03-15T07:24:43.144Z,79.5
2018-03-15T07:25:42.904Z,79.5
2018-03-15T07:26:43.171Z,79.6
2018-03-15T07:27:43.188Z,79.6
2018-03-15T07:28:43.214Z,79.41
2018-03-15T07:29:43.217Z,79.46
2018-03-15T07:30:43.302Z,79.31
2018-03-15T07:31:43.253Z,79.31
2018-03-15T07:32:43.280Z,79.41
2018-03-15T07:33:43.281Z,79.03
2018-03-15T07:34:43.297Z,79.6
2018-03-15T07:35:43.310Z,79.5
2018-03-15T07:36:43.331Z,78.74
2018-03-15T07:37:43.113Z,78.93
2018-03-15T07:38:43.359Z,79.5
2018-03-15T07:39:43.374Z,79.69
2018-03-15T07:40:43.395Z,78.93
2018-03-15T07:41:43.416Z,78.93
2018-03-15T07:42:43.166Z,78.36
2018-03-15T07:43:43.440Z,78.17
2018-03-15T07:44:43.462Z,78.08
2018-03-15T07:45:43.471Z,77.98
2018-03-15T07:46:43.638Z,78.17
2018-03-15T07:47:43.502Z,78.4
2018-03-15T07:48:43.515Z,78.17
2018-03-15T07:49:43.531Z,78.45
2018-03-15T07:50:43.296Z,78.36
2018-03-15T07:51:43.578Z,78.17
2018-03-15T07:52:43.582Z,78.27
2018-03-15T07:53:43.599Z,78.17
2018-03-15T07:54:43.620Z,78.17
2018-03-15T07:55:43.637Z,78.3
2018-03-15T07:56:43.393Z,78.02
2018-03-15T07:57:43.685Z,78.02
2018-03-15T07:58:43.427Z,77.73
2018-03-15T07:59:43.465Z,77.07
2018-03-15T08:00:43.719Z,77.17
2018-03-15T08:01:43.725Z,77.17
2018-03-15T08:02:43.742Z,76.97
2018-03-15T08:03:43.508Z,77.07
2018-03-15T08:04:43.824Z,76.59
2018-03-15T08:05:43.539Z,76.88
2018-03-15T08:06:43.807Z,76.88
2018-03-15T08:07:43.581Z,77.26
2018-03-15T08:08:43.845Z,77.55
2018-03-15T08:09:44.011Z,77.36
2018-03-15T08:10:43.877Z,77.07
2018-03-15T08:11:43.639Z,76.78
2018-03-15T08:12:43.907Z,76.59
2018-03-15T08:13:43.929Z,76.69
2018-03-15T08:14:43.943Z,76.35
2018-03-15T08:15:44.000Z,76.03
2018-03-15T08:16:43.978Z,76.5
2018-03-15T08:17:43.993Z,76.59
2018-03-15T08:18:44.011Z,76.59
2018-03-15T08:19:44.022Z,76.21
2018-03-15T08:20:44.041Z,76.4
2018-03-15T08:21:44.067Z,76.12
2018-03-15T08:22:44.088Z,75.93
2018-03-15T08:23:44.090Z,76.4
2018-03-15T08:24:43.855Z,75.93
2018-03-15T08:25:43.869Z,75.55
2018-03-15T08:26:44.143Z,75.74
2018-03-15T08:27:44.162Z,75.93
2018-03-15T08:28:44.228Z,75.64
2018-03-15T08:29:44.189Z,76.12
2018-03-15T08:30:44.207Z,75.64
2018-03-15T08:31:44.234Z,75.55
2018-03-15T08:32:44.240Z,75.74
2018-03-15T08:33:44.004Z,75.68
2018-03-15T08:34:44.022Z,75.3
2018-03-15T08:35:44.038Z,74.26
2018-03-15T08:36:44.308Z,74.35
2018-03-15T08:37:44.327Z,74.44
2018-03-15T08:38:44.342Z,73.88
2018-03-15T08:39:44.103Z,73.88
2018-03-15T08:40:44.407Z,73.91
2018-03-15T08:41:44.388Z,73.72
2018-03-15T08:42:44.407Z,73.25
2018-03-15T08:43:44.221Z,73.25
2018-03-15T08:44:44.445Z,73.82
2018-03-15T08:45:44.457Z,72.86
2018-03-15T08:46:44.475Z,72.96
2018-03-15T08:47:44.499Z,73.34
2018-03-15T08:48:44.513Z,72.67
2018-03-15T08:49:44.531Z,72.67
2018-03-15T08:50:44.560Z,72.3
2018-03-15T08:51:44.605Z,71.82
2018-03-15T08:52:44.584Z,71.67
2018-03-15T08:53:44.601Z,71.95
2018-03-15T08:54:44.619Z,71.28
2018-03-15T08:55:44.647Z,70.9
2018-03-15T08:56:44.650Z,71.09
2018-03-15T08:57:44.414Z,70.62
2018-03-15T08:58:44.705Z,71
2018-03-15T08:59:44.709Z,71.86
2018-03-15T09:00:44.775Z,70.62
2018-03-15T09:01:44.740Z,69.57
2018-03-15T09:02:44.502Z,68.65
2018-03-15T09:03:44.775Z,69.1
2018-03-15T09:04:44.834Z,68.43
2018-03-15T09:05:44.974Z,68.43
2018-03-15T09:06:44.955Z,69.1
2018-03-15T09:07:44.844Z,68.81
2018-03-15T09:08:44.912Z,69.13
2018-03-15T09:09:44.878Z,67.8
2018-03-15T09:10:44.894Z,68.37
2018-03-15T09:11:44.911Z,68.37
2018-03-15T09:12:44.941Z,67.8
2018-03-15T09:13:44.694Z,67.7
2018-03-15T09:14:44.715Z,68.27
2018-03-15T09:15:44.782Z,67.13
2018-03-15T09:16:45.008Z,66.78
2018-03-15T09:17:45.024Z,66.02
2018-03-15T09:18:44.788Z,65.64
2018-03-15T09:19:44.807Z,65.36
2018-03-15T09:20:44.824Z,64.97
2018-03-15T09:21:45.136Z,64.75
2018-03-15T09:22:45.116Z,64.94
2018-03-15T09:23:44.876Z,65.36
2018-03-15T09:24:45.150Z,65.64
2018-03-15T09:25:45.269Z,64.31
2018-03-15T09:26:45.188Z,63.39
2018-03-15T09:27:45.206Z,62.72
2018-03-15T09:28:45.229Z,62.05
2018-03-15T09:29:45.261Z,61.1
2018-03-15T09:30:45.321Z,61.25
2018-03-15T09:31:45.295Z,61.35
2018-03-15T09:32:45.596Z,61.35
2018-03-15T09:33:45.066Z,61.93
2018-03-15T09:34:45.350Z,62.12
2018-03-15T09:35:45.157Z,61.45
2018-03-15T09:36:45.394Z,61.93
2018-03-15T09:37:45.405Z,61.45
2018-03-15T09:38:45.157Z,61.45
2018-03-15T09:39:45.449Z,61.16
2018-03-15T09:40:46.056Z,61.25
2018-03-15T09:41:45.506Z,60.78
2018-03-15T09:42:45.549Z,60.3
2018-03-15T09:43:45.541Z,60.14
2018-03-15T09:44:45.539Z,60.59
2018-03-15T09:45:45.347Z,60.11
2018-03-15T09:46:45.312Z,61.07
2018-03-15T09:47:45.596Z,60.14
2018-03-15T09:48:46.502Z,59.86
2018-03-15T09:49:45.629Z,59.48
2018-03-15T09:50:45.386Z,59.48
2018-03-15T09:51:45.667Z,59.19
2018-03-15T09:52:45.698Z,59
2018-03-15T09:53:45.723Z,58.07
2018-03-15T09:54:45.795Z,58.26
2018-03-15T09:55:46.174Z,57.98
2018-03-15T09:56:45.785Z,57.98
2018-03-15T09:57:45.799Z,58.07
2018-03-15T09:58:45.542Z,57.41
2018-03-15T09:59:45.837Z,57.22
2018-03-15T10:00:45.580Z,57.7
2018-03-15T10:01:45.850Z,57.31
2018-03-15T10:02:45.895Z,57.7
2018-03-15T10:03:46.759Z,56.46
2018-03-15T10:04:45.662Z,57.31
2018-03-15T10:05:45.738Z,56.93
2018-03-15T10:06:45.963Z,56.84
2018-03-15T10:07:45.980Z,57.7
2018-03-15T10:08:45.742Z,57.6
2018-03-15T10:09:46.026Z,57.22
2018-03-15T10:10:46.619Z,56.77
2018-03-15T10:11:46.067Z,56.67
2018-03-15T10:12:46.138Z,55.62
2018-03-15T10:13:45.846Z,55.46
2018-03-15T10:14:46.147Z,54.79
2018-03-15T10:15:46.152Z,54.32
2018-03-15T10:16:46.175Z,54.22
2018-03-15T10:17:46.194Z,53.58
2018-03-15T10:18:47.029Z,53.36
2018-03-15T10:19:46.239Z,53.29
2018-03-15T10:20:45.989Z,52.62
2018-03-15T10:21:46.424Z,52.81
2018-03-15T10:22:46.300Z,52.05
2018-03-15T10:23:46.344Z,51.6
2018-03-15T10:24:46.352Z,51.7
2018-03-15T10:25:47.091Z,50.67
2018-03-15T10:26:46.410Z,51.72
2018-03-15T10:27:46.459Z,50.29
2018-03-15T10:28:46.439Z,50
2018-03-15T10:29:46.462Z,49.14
2018-03-15T10:30:46.479Z,49.52
2018-03-15T10:31:46.235Z,49.8
2018-03-15T10:32:46.566Z,48.85
2018-03-15T10:33:46.554Z,48.85
2018-03-15T10:34:46.683Z,49.23
2018-03-15T10:35:46.606Z,49.8
2018-03-15T10:36:46.613Z,49.33
2018-03-15T10:37:46.646Z,48.85
2018-03-15T10:38:46.665Z,49.8
2018-03-15T10:39:46.419Z,48.38
2018-03-15T10:40:47.391Z,48.11
2018-03-15T10:41:46.735Z,47.63
2018-03-15T10:42:46.759Z,47.44
2018-03-15T10:43:46.780Z,47.53
2018-03-15T10:44:46.534Z,47.63
2018-03-15T10:45:46.897Z,47.34
2018-03-15T10:46:46.871Z,47.73
2018-03-15T10:47:46.954Z,48.21
2018-03-15T10:48:48.160Z,47.63
2018-03-15T10:49:46.923Z,48.61
2018-03-15T10:50:47.002Z,46.25
2018-03-15T10:51:46.699Z,45.38
2018-03-15T10:52:46.988Z,44.83
2018-03-15T10:53:47.013Z,44.54
2018-03-15T10:54:47.060Z,44.93
2018-03-15T10:55:47.257Z,44.64
2018-03-15T10:56:47.094Z,43.8
2018-03-15T10:57:47.111Z,43.6
2018-03-15T10:58:47.137Z,43.7
2018-03-15T10:59:47.217Z,43.41
2018-03-15T11:00:47.206Z,43.7
2018-03-15T11:01:47.208Z,42.86
2018-03-15T11:02:47.300Z,42.19
2018-03-15T11:03:47.001Z,41.52
2018-03-15T11:04:47.303Z,41.44
2018-03-15T11:05:47.318Z,41.25
2018-03-15T11:06:47.345Z,41.06
2018-03-15T11:07:47.378Z,40.79
2018-03-15T11:08:47.399Z,40.6
2018-03-15T11:09:47.432Z,39.93
2018-03-15T11:10:47.465Z,39.93
2018-03-15T11:11:48.115Z,40.12
2018-03-15T11:12:47.532Z,39.93
2018-03-15T11:13:47.528Z,38.6
2018-03-15T11:14:47.568Z,38.51
2018-03-15T11:15:47.603Z,38.22
2018-03-15T11:16:47.610Z,38.79
2018-03-15T11:17:47.644Z,38.96
2018-03-15T11:18:47.399Z,39.16
2018-03-15T11:19:48.457Z,38.6
2018-03-15T11:20:47.716Z,39.47
2018-03-15T11:21:47.755Z,37.66
2018-03-15T11:22:47.510Z,38.07
2018-03-15T11:23:48.153Z,36.72
2018-03-15T11:24:47.828Z,36.54
2018-03-15T11:25:47.597Z,36.27
2018-03-15T11:26:47.892Z,34.83
2018-03-15T11:27:48.940Z,34.74
2018-03-15T11:28:47.679Z,35.22
2018-03-15T11:29:47.708Z,34.35
2018-03-15T11:30:47.738Z,34.06
2018-03-15T11:31:48.089Z,34.35
2018-03-15T11:32:47.798Z,33.59
2018-03-15T11:33:48.135Z,33.89
2018-03-15T11:34:48.133Z,33.81
2018-03-15T11:35:49.131Z,32.57
2018-03-15T11:36:48.188Z,32.09
2018-03-15T11:37:48.220Z,32.47
2018-03-15T11:38:48.240Z,32.47
2018-03-15T11:39:48.263Z,31.14
2018-03-15T11:40:48.313Z,30.58
2018-03-15T11:41:48.062Z,30.29
2018-03-15T11:42:48.899Z,30.19
2018-03-15T11:43:48.511Z,28.73
2018-03-15T11:44:48.433Z,29.31
2018-03-15T11:45:48.180Z,28.73
2018-03-15T11:46:48.484Z,28.26
2018-03-15T11:47:48.535Z,29.53
2018-03-15T11:48:48.620Z,27.81
2018-03-15T11:49:48.573Z,27.51
2018-03-15T11:50:48.332Z,27.13
2018-03-15T11:51:48.625Z,27.24
2018-03-15T11:52:48.717Z,27.55
2018-03-15T11:53:48.697Z,25.9
2018-03-15T11:54:48.717Z,25.71
2018-03-15T11:55:48.769Z,25.81
2018-03-15T11:56:48.784Z,25.98
2018-03-15T11:57:48.825Z,25.9
2018-03-15T11:58:49.599Z,25.61
2018-03-15T11:59:48.875Z,25.51
2018-03-15T12:00:48.651Z,25.61
2018-03-15T12:01:49.091Z,25.52
2018-03-15T12:02:48.987Z,25.35
2018-03-15T12:03:48.748Z,24.86
2018-03-15T12:04:49.048Z,24.86
2018-03-15T12:05:48.827Z,24.79
2018-03-15T12:06:48.891Z,24.97
2018-03-15T12:07:49.436Z,24.4
2018-03-15T12:08:49.184Z,25.18
2018-03-15T12:09:48.938Z,24.88
2018-03-15T12:10:48.971Z,24.4
2018-03-15T12:11:49.355Z,24.22
2018-03-15T12:12:49.304Z,23.83
2018-03-15T12:13:49.964Z,24.43
2018-03-15T12:14:49.382Z,23.55
2018-03-15T12:15:49.424Z,23.46
2018-03-15T12:16:49.425Z,23.66
2018-03-15T12:17:49.198Z,23.08
2018-03-15T12:18:49.486Z,22.9
2018-03-15T12:19:49.517Z,22.71
2018-03-15T12:20:49.571Z,22.02
2018-03-15T12:21:49.329Z,21.92
2018-03-15T12:22:49.669Z,22.02
2018-03-15T12:23:49.396Z,22.78
2018-03-15T12:24:49.690Z,23.76
2018-03-15T12:25:49.462Z,22.61
2018-03-15T12:26:49.746Z,21.54
2018-03-15T12:27:49.779Z,21.73
2018-03-15T12:28:49.557Z,22.12
2018-03-15T12:29:49.850Z,21.55
2018-03-15T12:30:49.878Z,21.56
2018-03-15T12:31:49.912Z,21.27
2018-03-15T12:32:49.951Z,21.75
2018-03-15T12:33:49.724Z,21.45
2018-03-15T12:34:49.762Z,22.03
2018-03-15T12:35:49.791Z,22.52
2018-03-15T12:36:50.077Z,22.61
2018-03-15T12:37:50.111Z,22.12
2018-03-15T12:38:50.145Z,21.64
2018-03-15T12:39:50.180Z,22.02
2018-03-15T12:40:50.213Z,22.61
2018-03-15T12:41:50.039Z,21.94
2018-03-15T12:42:50.286Z,21.16
2018-03-15T12:43:50.316Z,21.08
2018-03-15T12:44:50.092Z,20.98
2018-03-15T12:45:50.127Z,22.24
2018-03-15T12:46:50.463Z,22.51
2018-03-15T12:47:50.446Z,21.75
2018-03-15T12:48:50.479Z,21.84
2018-03-15T12:49:50.529Z,21.75
2018-03-15T12:50:50.553Z,21.85
2018-03-15T12:51:50.579Z,21.57
2018-03-15T12:52:50.613Z,20.03
2018-03-15T12:53:50.398Z,21.37
2018-03-15T12:54:50.684Z,20.42
2018-03-15T12:55:50.716Z,19.85